Terminal Aerodrome Forecast
Issued by NWS Atlanta, GA

Home | Current Version | Previous Version | Text Only | Print | Product List | Glossary On
Versions: 1 2 3 4 5 6 7 8 9 10 11 12 13 14 15 16 17 18 19 20 21 22 23 24 25 26 27 28
761
FTUS42 KFFC 262342
TAFMCN
TAF
KMCN 262342Z 2700/2724 07007KT P6SM FEW110
     FM270100 13004KT P6SM FEW080
     FM270700 09003KT P6SM BKN015
     FM271400 09004KT P6SM SCT035
     FM271700 11004KT P6SM SCT050 SCT250 PROB30 2719/2723 P6SM TSRA
      BKN040CB=

USA.gov is the U.S. government's official web portal to all federal, state and local government web resources and services.